Zhoushan Island — VRLY2 — position and weather

sailwx.info

Track history (hours):
 
Tides and Currents Weather Stations Pressure Air Temp Water Temp Dewpoint Dewpoint Depression Visibility Wind Speed Wind Dir Waves Ship Positions

Zhoushan Island

Last reported at 2018-May-16 02:07 UTC. Time now 2018-Aug-20 16:46 UTC.
Position S 26°05' W 046°30'.
Warning: this ship's position is months out of date.

Length 190 m; draft 7.2 m.

Type: Cargo ship. MMSI: 477243200.

Date/timePositionNaut miles runAvg speedWind from/ knotsBaromVisibWave heightAir tempDewpointWater temp
2018-May-16 02:07S 26°05' W 046°30'212.5
2018-May-16 02:00S 26°04' W 046°30'712.4
2018-May-16 01:26S 25°57' W 046°30'612.7
2018-May-16 00:59S 25°51' W 046°29'612.5
2018-May-16 00:30S 25°45' W 046°29'612.4
2018-May-16 00:00S 25°39' W 046°28'612.3
2018-May-15 23:30S 25°33' W 046°28'612.5
2018-May-15 23:00S 25°27' W 046°27'612.6
2018-May-15 22:30S 25°20' W 046°27'612.8
2018-May-15 22:00S 25°14' W 046°27'613.0
2018-May-15 21:30S 25°07' W 046°26'612.9
2018-May-15 21:00S 25°01' W 046°26'713.2
2018-May-15 20:30S 24°54' W 046°25'713.2
2018-May-15 20:00S 24°48' W 046°25'713.2
2018-May-15 19:30S 24°41' W 046°25'613.0
2018-May-15 19:00S 24°35' W 046°24'613.0
2018-May-15 18:30S 24°28' W 046°24'712.9
2018-May-15 17:58S 24°21' W 046°24'612.8
2018-May-15 17:30S 24°15' W 046°24'612.6
2018-May-15 17:00S 24°09' W 046°24'611.4
2018-May-15 16:30S 24°04' W 046°22'5 9.7
2018-May-15 16:00S 23°60' W 046°19'2 4.9
2018-May-15 15:30S 23°57' W 046°18'  
Track history (hours):
 
Tides and Currents Weather Stations Pressure Air Temp Water Temp Dewpoint Dewpoint Depression Visibility Wind Speed Wind Dir Waves Ship Positions

Zhoushan Island

Last reported at 2018-May-16 02:07 UTC. Time now 2018-Aug-20 16:46 UTC.
Position S 26°05' W 046°30'.
Warning: this ship's position is months out of date.

Length 190 m; draft 7.2 m.

Type: Cargo ship. MMSI: 477243200.

Date/timePositionNaut miles runAvg speedWind from/ knotsBaromVisibWave heightAir tempDewpointWater temp
2018-May-16 02:07S 26°05' W 046°30'212.5
2018-May-16 02:00S 26°04' W 046°30'712.4
2018-May-16 01:26S 25°57' W 046°30'612.7
2018-May-16 00:59S 25°51' W 046°29'612.5
2018-May-16 00:30S 25°45' W 046°29'612.4
2018-May-16 00:00S 25°39' W 046°28'612.3
2018-May-15 23:30S 25°33' W 046°28'612.5
2018-May-15 23:00S 25°27' W 046°27'612.6
2018-May-15 22:30S 25°20' W 046°27'612.8
2018-May-15 22:00S 25°14' W 046°27'613.0
2018-May-15 21:30S 25°07' W 046°26'612.9
2018-May-15 21:00S 25°01' W 046°26'713.2
2018-May-15 20:30S 24°54' W 046°25'713.2
2018-May-15 20:00S 24°48' W 046°25'713.2
2018-May-15 19:30S 24°41' W 046°25'613.0
2018-May-15 19:00S 24°35' W 046°24'613.0
2018-May-15 18:30S 24°28' W 046°24'712.9
2018-May-15 17:58S 24°21' W 046°24'612.8
2018-May-15 17:30S 24°15' W 046°24'612.6
2018-May-15 17:00S 24°09' W 046°24'611.4
2018-May-15 16:30S 24°04' W 046°22'5 9.7
2018-May-15 16:00S 23°60' W 046°19'2 4.9
2018-May-15 15:30S 23°57' W 046°18'  

Dump ship's entire track history